sensor_id;sensor_type;location;lat;lon;timestamp;pressure;altitude;pressure_sealevel;temperature;humidity
79331;BME280;68797;49.782;19.054;2024-03-17T00:00:22;97243.19;;;7.24;100.00
79331;BME280;68797;49.782;19.054;2024-03-17T00:03:09;97239.78;;;7.17;100.00
79331;BME280;68797;49.782;19.054;2024-03-17T00:05:36;97259.09;;;7.21;100.00
79331;BME280;68797;49.782;19.054;2024-03-17T00:08:04;97256.50;;;7.18;100.00
79331;BME280;68797;49.782;19.054;2024-03-17T00:10:34;97256.66;;;7.10;100.00
79331;BME280;68797;49.782;19.054;2024-03-17T00:13:00;97258.41;;;7.08;100.00
79331;BME280;68797;49.782;19.054;2024-03-17T00:15:27;97270.97;;;6.95;100.00
79331;BME280;68797;49.782;19.054;2024-03-17T00:17:53;97273.72;;;6.89;100.00
79331;BME280;68797;49.782;19.054;2024-03-17T00:20:19;97278.34;;;6.77;100.00
79331;BME280;68797;49.782;19.054;2024-03-17T00:22:50;97290.81;;;6.67;100.00
79331;BME280;68797;49.782;19.054;2024-03-17T00:25:17;97292.69;;;6.59;100.00
79331;BME280;68797;49.782;19.054;2024-03-17T00:27:43;97300.66;;;6.56;100.00
79331;BME280;68797;49.782;19.054;2024-03-17T00:30:11;97299.16;;;6.38;100.00
79331;BME280;68797;49.782;19.054;2024-03-17T00:32:42;97301.69;;;6.46;100.00
79331;BME280;68797;49.782;19.054;2024-03-17T00:35:09;97308.56;;;6.53;100.00
79331;BME280;68797;49.782;19.054;2024-03-17T00:37:37;97314.94;;;6.38;100.00
79331;BME280;68797;49.782;19.054;2024-03-17T00:40:04;97315.03;;;6.33;100.00
79331;BME280;68797;49.782;19.054;2024-03-17T00:42:32;97317.66;;;6.33;100.00
79331;BME280;68797;49.782;19.054;2024-03-17T00:44:59;97311.72;;;6.18;100.00
79331;BME280;68797;49.782;19.054;2024-03-17T00:47:28;97317.00;;;6.18;100.00
79331;BME280;68797;49.782;19.054;2024-03-17T00:49:55;97323.19;;;6.15;100.00
79331;BME280;68797;49.782;19.054;2024-03-17T00:52:21;97321.44;;;6.14;100.00
79331;BME280;68797;49.782;19.054;2024-03-17T00:54:47;97323.47;;;5.94;100.00
79331;BME280;68797;49.782;19.054;2024-03-17T00:57:14;97330.47;;;5.95;100.00
79331;BME280;68797;49.782;19.054;2024-03-17T00:59:45;97342.81;;;5.88;100.00
79331;BME280;68797;49.782;19.054;2024-03-17T01:02:12;97352.63;;;5.74;100.00
79331;BME280;68797;49.782;19.054;2024-03-17T01:04:42;97361.56;;;5.59;100.00
79331;BME280;68797;49.782;19.054;2024-03-17T01:07:08;97353.09;;;5.33;100.00
79331;BME280;68797;49.782;19.054;2024-03-17T01:09:34;97363.75;;;5.16;100.00
79331;BME280;68797;49.782;19.054;2024-03-17T01:12:01;97362.03;;;5.09;100.00
79331;BME280;68797;49.782;19.054;2024-03-17T01:14:30;97377.81;;;5.09;100.00
79331;BME280;68797;49.782;19.054;2024-03-17T01:16:58;97362.06;;;5.06;100.00
79331;BME280;68797;49.782;19.054;2024-03-17T01:19:24;97376.97;;;5.07;100.00
79331;BME280;68797;49.782;19.054;2024-03-17T01:21:51;97379.66;;;5.02;100.00
79331;BME280;68797;49.782;19.054;2024-03-17T01:24:18;97386.53;;;5.17;100.00
79331;BME280;68797;49.782;19.054;2024-03-17T01:26:44;97381.19;;;5.26;100.00
79331;BME280;68797;49.782;19.054;2024-03-17T01:29:11;97395.28;;;5.17;100.00
79331;BME280;68797;49.782;19.054;2024-03-17T01:31:37;97388.22;;;5.24;100.00
79331;BME280;68797;49.782;19.054;2024-03-17T01:34:04;97389.91;;;5.30;100.00
79331;BME280;68797;49.782;19.054;2024-03-17T01:36:30;97396.19;;;5.15;100.00
79331;BME280;68797;49.782;19.054;2024-03-17T01:38:56;97401.59;;;4.96;100.00
79331;BME280;68797;49.782;19.054;2024-03-17T01:41:22;97405.00;;;5.09;100.00
79331;BME280;68797;49.782;19.054;2024-03-17T01:43:49;97408.59;;;4.96;100.00
79331;BME280;68797;49.782;19.054;2024-03-17T01:46:16;97407.69;;;5.02;100.00
79331;BME280;68797;49.782;19.054;2024-03-17T01:48:44;97407.66;;;5.06;100.00
79331;BME280;68797;49.782;19.054;2024-03-17T01:51:13;97411.22;;;5.02;100.00
79331;BME280;68797;49.782;19.054;2024-03-17T01:53:42;97411.25;;;4.99;100.00
79331;BME280;68797;49.782;19.054;2024-03-17T01:56:10;97416.47;;;4.97;100.00
79331;BME280;68797;49.782;19.054;2024-03-17T01:58:37;97414.75;;;5.00;100.00
79331;BME280;68797;49.782;19.054;2024-03-17T02:01:03;97411.28;;;4.93;100.00
79331;BME280;68797;49.782;19.054;2024-03-17T02:03:30;97419.19;;;4.85;100.00
79331;BME280;68797;49.782;19.054;2024-03-17T02:05:58;97416.56;;;4.90;100.00
79331;BME280;68797;49.782;19.054;2024-03-17T02:08:25;97415.69;;;4.85;100.00
79331;BME280;68797;49.782;19.054;2024-03-17T02:10:55;97410.44;;;4.88;100.00
79331;BME280;68797;49.782;19.054;2024-03-17T02:13:21;97405.19;;;4.85;100.00
79331;BME280;68797;49.782;19.054;2024-03-17T02:15:48;97408.75;;;4.76;100.00
79331;BME280;68797;49.782;19.054;2024-03-17T02:18:14;97424.47;;;4.84;100.00
79331;BME280;68797;49.782;19.054;2024-03-17T02:20:40;97415.72;;;4.82;100.00
79331;BME280;68797;49.782;19.054;2024-03-17T02:23:23;97409.59;;;4.81;100.00
79331;BME280;68797;49.782;19.054;2024-03-17T02:25:53;97407.81;;;4.83;100.00
79331;BME280;68797;49.782;19.054;2024-03-17T02:28:19;97416.63;;;4.76;100.00
79331;BME280;68797;49.782;19.054;2024-03-17T02:30:45;97417.50;;;4.80;100.00
79331;BME280;68797;49.782;19.054;2024-03-17T02:33:12;97418.47;;;4.66;100.00
79331;BME280;68797;49.782;19.054;2024-03-17T02:35:38;97425.31;;;4.87;100.00
79331;BME280;68797;49.782;19.054;2024-03-17T02:38:04;97428.81;;;4.91;100.00
79331;BME280;68797;49.782;19.054;2024-03-17T02:40:31;97424.47;;;4.88;100.00
79331;BME280;68797;49.782;19.054;2024-03-17T02:42:57;97420.06;;;4.86;100.00
79331;BME280;68797;49.782;19.054;2024-03-17T02:45:23;97424.47;;;4.85;100.00
79331;BME280;68797;49.782;19.054;2024-03-17T02:47:49;97420.94;;;4.89;100.00
79331;BME280;68797;49.782;19.054;2024-03-17T02:50:16;97420.94;;;4.89;100.00
79331;BME280;68797;49.782;19.054;2024-03-17T02:52:42;97431.38;;;4.99;100.00
79331;BME280;68797;49.782;19.054;2024-03-17T02:55:08;97426.97;;;5.02;100.00
79331;BME280;68797;49.782;19.054;2024-03-17T02:57:34;97424.38;;;5.01;100.00
79331;BME280;68797;49.782;19.054;2024-03-17T03:00:01;97411.16;;;5.07;100.00
79331;BME280;68797;49.782;19.054;2024-03-17T03:02:30;97415.63;;;4.95;100.00
79331;BME280;68797;49.782;19.054;2024-03-17T03:04:58;97423.50;;;4.95;100.00
79331;BME280;68797;49.782;19.054;2024-03-17T03:07:24;97433.19;;;4.92;100.00
79331;BME280;68797;49.782;19.054;2024-03-17T03:09:51;97424.47;;;4.88;100.00
79331;BME280;68797;49.782;19.054;2024-03-17T03:12:17;97433.22;;;4.89;100.00
79331;BME280;68797;49.782;19.054;2024-03-17T03:14:43;97436.75;;;4.82;100.00
79331;BME280;68797;49.782;19.054;2024-03-17T03:17:10;97437.59;;;4.87;100.00
79331;BME280;68797;49.782;19.054;2024-03-17T03:19:36;97433.16;;;4.95;100.00
79331;BME280;68797;49.782;19.054;2024-03-17T03:22:02;97434.94;;;4.93;100.00
79331;BME280;68797;49.782;19.054;2024-03-17T03:24:28;97450.72;;;4.91;100.00
79331;BME280;68797;49.782;19.054;2024-03-17T03:26:54;97455.97;;;4.91;100.00
79331;BME280;68797;49.782;19.054;2024-03-17T03:29:21;97456.81;;;4.95;100.00
79331;BME280;68797;49.782;19.054;2024-03-17T03:31:47;97456.03;;;4.82;100.00
79331;BME280;68797;49.782;19.054;2024-03-17T03:34:14;97460.41;;;4.83;100.00
79331;BME280;68797;49.782;19.054;2024-03-17T03:36:40;97459.47;;;4.93;100.00
79331;BME280;68797;49.782;19.054;2024-03-17T03:39:07;97463.91;;;4.88;100.00
79331;BME280;68797;49.782;19.054;2024-03-17T03:41:38;97459.53;;;4.84;100.00
79331;BME280;68797;49.782;19.054;2024-03-17T03:44:04;97462.16;;;4.84;100.00
79331;BME280;68797;49.782;19.054;2024-03-17T03:46:30;97459.53;;;4.84;100.00
79331;BME280;68797;49.782;19.054;2024-03-17T03:48:56;97461.34;;;4.72;100.00
79331;BME280;68797;49.782;19.054;2024-03-17T03:51:22;97470.16;;;4.61;100.00
79331;BME280;68797;49.782;19.054;2024-03-17T03:53:50;97477.13;;;4.70;100.00
79331;BME280;68797;49.782;19.054;2024-03-17T03:56:17;97482.38;;;4.72;100.00
79331;BME280;68797;49.782;19.054;2024-03-17T03:58:44;97479.75;;;4.70;100.00
79331;BME280;68797;49.782;19.054;2024-03-17T04:01:12;97478.84;;;4.79;100.00
79331;BME280;68797;49.782;19.054;2024-03-17T04:03:38;97483.28;;;4.63;100.00
79331;BME280;68797;49.782;19.054;2024-03-17T04:06:08;97481.50;;;4.71;100.00
79331;BME280;68797;49.782;19.054;2024-03-17T04:08:36;97488.53;;;4.69;100.00
79331;BME280;68797;49.782;19.054;2024-03-17T04:11:03;97483.28;;;4.63;100.00
79331;BME280;68797;49.782;19.054;2024-03-17T04:13:30;97485.03;;;4.65;100.00
79331;BME280;68797;49.782;19.054;2024-03-17T04:15:57;97480.66;;;4.63;100.00
79331;BME280;68797;49.782;19.054;2024-03-17T04:18:28;97493.81;;;4.68;100.00
79331;BME280;68797;49.782;19.054;2024-03-17T04:21:03;97496.53;;;4.46;100.00
79331;BME280;68797;49.782;19.054;2024-03-17T04:23:29;97493.94;;;4.34;100.00
79331;BME280;68797;49.782;19.054;2024-03-17T04:25:58;97494.81;;;4.28;100.00
79331;BME280;68797;49.782;19.054;2024-03-17T04:28:25;97500.94;;;4.35;100.00
79331;BME280;68797;49.782;19.054;2024-03-17T04:30:51;97507.91;;;4.42;100.00
79331;BME280;68797;49.782;19.054;2024-03-17T04:33:17;97510.56;;;4.37;100.00
79331;BME280;68797;49.782;19.054;2024-03-17T04:35:44;97520.19;;;4.40;100.00
79331;BME280;68797;49.782;19.054;2024-03-17T04:38:10;97518.41;;;4.45;100.00
79331;BME280;68797;49.782;19.054;2024-03-17T04:40:40;97520.16;;;4.48;100.00
79331;BME280;68797;49.782;19.054;2024-03-17T04:43:09;97527.19;;;4.40;100.00
79331;BME280;68797;49.782;19.054;2024-03-17T04:45:36;97536.84;;;4.36;100.00
79331;BME280;68797;49.782;19.054;2024-03-17T04:48:03;97535.06;;;4.46;100.00
79331;BME280;68797;49.782;19.054;2024-03-17T04:50:30;97536.81;;;4.44;100.00
79331;BME280;68797;49.782;19.054;2024-03-17T04:52:59;97535.91;;;4.43;100.00
79331;BME280;68797;49.782;19.054;2024-03-17T04:55:29;97535.03;;;4.49;100.00
79331;BME280;68797;49.782;19.054;2024-03-17T04:57:55;97538.53;;;4.48;100.00
79331;BME280;68797;49.782;19.054;2024-03-17T05:00:21;97549.97;;;4.28;100.00
79331;BME280;68797;49.782;19.054;2024-03-17T05:02:47;97543.03;;;4.21;100.00
79331;BME280;68797;49.782;19.054;2024-03-17T05:05:14;97547.38;;;4.16;100.00
79331;BME280;68797;49.782;19.054;2024-03-17T05:07:40;97553.53;;;4.14;100.00
79331;BME280;68797;49.782;19.054;2024-03-17T05:10:06;97548.25;;;4.09;100.00
79331;BME280;68797;49.782;19.054;2024-03-17T05:12:33;97552.66;;;4.15;100.00
79331;BME280;68797;49.782;19.054;2024-03-17T05:14:59;97558.78;;;4.14;100.00
79331;BME280;68797;49.782;19.054;2024-03-17T05:17:25;97557.00;;;4.17;100.00
79331;BME280;68797;49.782;19.054;2024-03-17T05:19:51;97555.25;;;4.10;100.00
79331;BME280;68797;49.782;19.054;2024-03-17T05:22:17;97558.78;;;4.04;100.00
79331;BME280;68797;49.782;19.054;2024-03-17T05:24:44;97555.28;;;4.02;100.00
79331;BME280;68797;49.782;19.054;2024-03-17T05:27:10;97563.16;;;4.12;100.00
79331;BME280;68797;49.782;19.054;2024-03-17T05:29:37;97563.16;;;4.07;100.00
79331;BME280;68797;49.782;19.054;2024-03-17T05:32:04;97557.94;;;4.01;100.00
79331;BME280;68797;49.782;19.054;2024-03-17T05:34:31;97565.81;;;3.93;100.00
79331;BME280;68797;49.782;19.054;2024-03-17T05:36:58;97560.56;;;3.84;100.00
79331;BME280;68797;49.782;19.054;2024-03-17T05:39:25;97564.06;;;3.85;100.00
79331;BME280;68797;49.782;19.054;2024-03-17T05:41:51;97558.81;;;3.91;100.00
79331;BME280;68797;49.782;19.054;2024-03-17T05:44:17;97561.41;;;3.98;100.00
79331;BME280;68797;49.782;19.054;2024-03-17T05:46:44;97575.41;;;4.03;100.00
79331;BME280;68797;49.782;19.054;2024-03-17T05:49:10;97568.41;;;4.15;100.00
79331;BME280;68797;49.782;19.054;2024-03-17T05:51:37;97574.53;;;4.14;100.00
79331;BME280;68797;49.782;19.054;2024-03-17T05:54:03;97568.38;;;4.10;100.00
79331;BME280;68797;49.782;19.054;2024-03-17T05:56:29;97572.78;;;3.99;100.00
79331;BME280;68797;49.782;19.054;2024-03-17T05:58:56;97564.91;;;4.08;100.00
79331;BME280;68797;49.782;19.054;2024-03-17T06:01:22;97570.19;;;4.02;100.00
79331;BME280;68797;49.782;19.054;2024-03-17T06:03:48;97571.03;;;4.07;100.00
79331;BME280;68797;49.782;19.054;2024-03-17T06:06:14;97573.66;;;3.98;100.00
79331;BME280;68797;49.782;19.054;2024-03-17T06:08:41;97566.66;;;4.12;100.00
79331;BME280;68797;49.782;19.054;2024-03-17T06:11:07;97570.16;;;4.06;100.00
79331;BME280;68797;49.782;19.054;2024-03-17T06:13:34;97580.63;;;4.37;100.00
79331;BME280;68797;49.782;19.054;2024-03-17T06:16:03;97574.47;;;4.44;100.00
79331;BME280;68797;49.782;19.054;2024-03-17T06:18:31;97580.50;;;4.74;100.00
79331;BME280;68797;49.782;19.054;2024-03-17T06:20:57;97576.06;;;4.88;100.00
79331;BME280;68797;49.782;19.054;2024-03-17T06:23:26;97578.81;;;4.56;100.00
79331;BME280;68797;49.782;19.054;2024-03-17T06:25:53;97584.13;;;4.37;100.00
79331;BME280;68797;49.782;19.054;2024-03-17T06:28:22;97596.41;;;4.14;98.83
79331;BME280;68797;49.782;19.054;2024-03-17T06:30:58;97596.44;;;4.03;100.00
79331;BME280;68797;49.782;19.054;2024-03-17T06:33:26;97604.31;;;3.79;98.05
79331;BME280;68797;49.782;19.054;2024-03-17T06:35:55;97602.41;;;4.63;96.56
79331;BME280;68797;49.782;19.054;2024-03-17T06:38:22;97603.94;;;5.19;96.25
79331;BME280;68797;49.782;19.054;2024-03-17T06:40:50;97608.91;;;5.71;94.24
79331;BME280;68797;49.782;19.054;2024-03-17T06:43:17;97612.19;;;6.04;92.40
79331;BME280;68797;49.782;19.054;2024-03-17T06:45:44;97612.81;;;6.32;88.60
79331;BME280;68797;49.782;19.054;2024-03-17T06:48:19;97610.97;;;6.43;89.78
79331;BME280;68797;49.782;19.054;2024-03-17T06:50:45;97614.25;;;6.63;90.07
79331;BME280;68797;49.782;19.054;2024-03-17T06:53:13;97606.66;;;6.34;92.56
79331;BME280;68797;49.782;19.054;2024-03-17T06:55:39;97602.53;;;6.03;86.21
79331;BME280;68797;49.782;19.054;2024-03-17T06:58:05;97608.72;;;5.99;84.97
79331;BME280;68797;49.782;19.054;2024-03-17T07:00:32;97608.25;;;6.48;85.03
79331;BME280;68797;49.782;19.054;2024-03-17T07:02:58;97607.22;;;6.65;85.73
79331;BME280;68797;49.782;19.054;2024-03-17T07:05:25;97603.84;;;6.50;84.57
79331;BME280;68797;49.782;19.054;2024-03-17T07:07:51;97608.44;;;6.32;83.65
79331;BME280;68797;49.782;19.054;2024-03-17T07:10:17;97606.31;;;6.66;82.70
79331;BME280;68797;49.782;19.054;2024-03-17T07:12:44;97599.63;;;6.35;83.51
79331;BME280;68797;49.782;19.054;2024-03-17T07:15:10;97614.38;;;6.54;83.37
79331;BME280;68797;49.782;19.054;2024-03-17T07:17:37;97608.16;;;6.58;83.64
79331;BME280;68797;49.782;19.054;2024-03-17T07:20:03;97600.16;;;6.64;81.31
79331;BME280;68797;49.782;19.054;2024-03-17T07:22:34;97609.94;;;6.53;83.00
79331;BME280;68797;49.782;19.054;2024-03-17T07:25:00;97608.31;;;6.41;82.83
79331;BME280;68797;49.782;19.054;2024-03-17T07:27:28;97606.44;;;6.56;80.12
79331;BME280;68797;49.782;19.054;2024-03-17T07:29:54;97602.06;;;6.55;79.82
79331;BME280;68797;49.782;19.054;2024-03-17T07:32:22;97606.66;;;6.30;81.55
79331;BME280;68797;49.782;19.054;2024-03-17T07:34:49;97595.44;;;6.13;76.51
79331;BME280;68797;49.782;19.054;2024-03-17T07:37:16;97603.25;;;6.22;81.55
79331;BME280;68797;49.782;19.054;2024-03-17T07:39:43;97598.66;;;6.40;79.20
79331;BME280;68797;49.782;19.054;2024-03-17T07:42:09;97609.31;;;7.08;81.38
79331;BME280;68797;49.782;19.054;2024-03-17T07:44:36;97608.38;;;6.35;77.59
79331;BME280;68797;49.782;19.054;2024-03-17T07:47:03;97616.22;;;7.21;75.51
79331;BME280;68797;49.782;19.054;2024-03-17T07:49:30;97607.25;;;7.33;73.78
79331;BME280;68797;49.782;19.054;2024-03-17T07:51:57;97602.28;;;7.72;74.26
79331;BME280;68797;49.782;19.054;2024-03-17T07:54:26;97590.38;;;7.45;72.26
79331;BME280;68797;49.782;19.054;2024-03-17T07:56:53;97594.03;;;7.35;72.42
79331;BME280;68797;49.782;19.054;2024-03-17T07:59:19;97590.69;;;7.22;72.37
79331;BME280;68797;49.782;19.054;2024-03-17T08:01:45;97587.84;;;7.37;76.87
79331;BME280;68797;49.782;19.054;2024-03-17T08:04:12;97590.31;;;7.49;71.57
79331;BME280;68797;49.782;19.054;2024-03-17T08:06:41;97588.47;;;7.53;70.80
79331;BME280;68797;49.782;19.054;2024-03-17T08:09:08;97584.03;;;7.56;69.88
79331;BME280;68797;49.782;19.054;2024-03-17T08:11:35;97588.88;;;7.85;68.82
79331;BME280;68797;49.782;19.054;2024-03-17T08:14:02;97592.19;;;7.97;69.35
79331;BME280;68797;49.782;19.054;2024-03-17T08:16:28;97580.38;;;8.19;74.02
79331;BME280;68797;49.782;19.054;2024-03-17T08:18:56;97578.94;;;8.54;72.11
79331;BME280;68797;49.782;19.054;2024-03-17T08:21:22;97591.34;;;8.49;66.76
79331;BME280;68797;49.782;19.054;2024-03-17T08:23:48;97590.47;;;8.48;69.00
79331;BME280;68797;49.782;19.054;2024-03-17T08:26:15;97589.34;;;8.61;68.16
79331;BME280;68797;49.782;19.054;2024-03-17T08:28:41;97583.31;;;8.99;67.22
79331;BME280;68797;49.782;19.054;2024-03-17T08:31:07;97591.09;;;8.62;64.33
79331;BME280;68797;49.782;19.054;2024-03-17T08:33:33;97591.16;;;8.59;64.96
79331;BME280;68797;49.782;19.054;2024-03-17T08:36:03;97596.53;;;8.53;66.46
79331;BME280;68797;49.782;19.054;2024-03-17T08:38:31;97602.38;;;8.20;64.34
79331;BME280;68797;49.782;19.054;2024-03-17T08:41:05;97587.97;;;7.86;67.65
79331;BME280;68797;49.782;19.054;2024-03-17T08:43:32;97597.81;;;8.29;68.79
79331;BME280;68797;49.782;19.054;2024-03-17T08:46:02;97587.53;;;8.65;63.52
79331;BME280;68797;49.782;19.054;2024-03-17T08:48:30;97601.38;;;8.28;64.14
79331;BME280;68797;49.782;19.054;2024-03-17T08:50:58;97602.94;;;8.41;66.30
79331;BME280;68797;49.782;19.054;2024-03-17T08:53:24;97596.91;;;8.30;63.30
79331;BME280;68797;49.782;19.054;2024-03-17T08:55:51;97603.97;;;7.77;60.16
79331;BME280;68797;49.782;19.054;2024-03-17T08:58:18;97593.94;;;7.99;63.97
79331;BME280;68797;49.782;19.054;2024-03-17T09:00:44;97591.34;;;8.49;65.62
79331;BME280;68797;49.782;19.054;2024-03-17T09:03:11;97585.34;;;8.39;62.65
79331;BME280;68797;49.782;19.054;2024-03-17T09:05:39;97588.78;;;8.46;61.65
79331;BME280;68797;49.782;19.054;2024-03-17T09:08:07;97580.34;;;8.71;63.51
79331;BME280;68797;49.782;19.054;2024-03-17T09:10:43;97570.31;;;8.41;63.74
79331;BME280;68797;49.782;19.054;2024-03-17T09:13:17;97588.84;;;8.42;61.08
79331;BME280;68797;49.782;19.054;2024-03-17T09:16:10;97581.28;;;8.18;60.00
79331;BME280;68797;49.782;19.054;2024-03-17T09:18:36;97571.34;;;8.32;60.91
79331;BME280;68797;49.782;19.054;2024-03-17T09:21:07;97567.41;;;8.05;66.91
79331;BME280;68797;49.782;19.054;2024-03-17T09:23:34;97573.91;;;7.26;62.85
79331;BME280;68797;49.782;19.054;2024-03-17T09:26:07;97573.34;;;7.66;63.09
79331;BME280;68797;49.782;19.054;2024-03-17T09:28:38;97576.28;;;8.54;62.30
79331;BME280;68797;49.782;19.054;2024-03-17T09:31:05;97568.00;;;9.14;65.94
79331;BME280;68797;49.782;19.054;2024-03-17T09:33:33;97567.38;;;9.43;63.03
79331;BME280;68797;49.782;19.054;2024-03-17T09:36:04;97572.25;;;9.61;59.27
79331;BME280;68797;49.782;19.054;2024-03-17T09:38:34;97568.59;;;9.67;56.95
79331;BME280;68797;49.782;19.054;2024-03-17T09:41:02;97568.00;;;9.14;58.56
79331;BME280;68797;49.782;19.054;2024-03-17T09:43:32;97570.66;;;8.70;61.68
79331;BME280;68797;49.782;19.054;2024-03-17T09:46:05;97569.59;;;8.79;56.88
79331;BME280;68797;49.782;19.054;2024-03-17T09:48:31;97564.25;;;9.24;60.51
79331;BME280;68797;49.782;19.054;2024-03-17T09:51:02;97557.50;;;9.88;60.17
79331;BME280;68797;49.782;19.054;2024-03-17T09:53:33;97548.47;;;9.58;58.50
79331;BME280;68797;49.782;19.054;2024-03-17T09:56:20;97549.13;;;9.29;62.94
79331;BME280;68797;49.782;19.054;2024-03-17T09:58:50;97541.84;;;9.77;58.18
79331;BME280;68797;49.782;19.054;2024-03-17T10:01:18;97545.44;;;8.96;58.83
79331;BME280;68797;49.782;19.054;2024-03-17T10:03:51;97546.53;;;9.27;61.48
79331;BME280;68797;49.782;19.054;2024-03-17T10:06:24;97532.28;;;8.93;58.55
79331;BME280;68797;49.782;19.054;2024-03-17T10:08:52;97542.69;;;8.57;55.00
79331;BME280;68797;49.782;19.054;2024-03-17T10:11:24;97551.97;;;8.32;56.50
79331;BME280;68797;49.782;19.054;2024-03-17T10:14:05;97549.44;;;7.73;56.33
79331;BME280;68797;49.782;19.054;2024-03-17T10:16:33;97549.06;;;7.96;60.35
79331;BME280;68797;49.782;19.054;2024-03-17T10:19:16;97547.00;;;7.61;58.14
79331;BME280;68797;49.782;19.054;2024-03-17T10:21:47;97550.97;;;7.31;62.60
79331;BME280;68797;49.782;19.054;2024-03-17T10:24:20;97552.78;;;7.27;62.21
79331;BME280;68797;49.782;19.054;2024-03-17T10:29:20;97546.53;;;7.35;61.97
79331;BME280;68797;49.782;19.054;2024-03-17T10:31:48;97536.13;;;8.32;66.86
79331;BME280;68797;49.782;19.054;2024-03-17T10:34:15;97539.81;;;8.20;58.79
79331;BME280;68797;49.782;19.054;2024-03-17T10:36:48;97537.81;;;7.83;60.96
79331;BME280;68797;49.782;19.054;2024-03-17T10:39:25;97542.19;;;7.88;61.42
79331;BME280;68797;49.782;19.054;2024-03-17T10:41:57;97539.41;;;7.94;63.44
79331;BME280;68797;49.782;19.054;2024-03-17T10:44:29;97536.00;;;7.89;63.22
79331;BME280;68797;49.782;19.054;2024-03-17T10:46:57;97540.31;;;7.93;62.68
79331;BME280;68797;49.782;19.054;2024-03-17T10:49:33;97535.22;;;8.33;62.33
79331;BME280;68797;49.782;19.054;2024-03-17T10:52:02;97531.47;;;8.89;63.09
79331;BME280;68797;49.782;19.054;2024-03-17T10:54:28;97529.28;;;9.08;57.68
79331;BME280;68797;49.782;19.054;2024-03-17T10:56:57;97522.03;;;9.18;58.64
79331;BME280;68797;49.782;19.054;2024-03-17T10:59:40;97515.09;;;8.70;61.96
79331;BME280;68797;49.782;19.054;2024-03-17T11:02:27;97522.31;;;8.62;59.01
79331;BME280;68797;49.782;19.054;2024-03-17T11:05:07;97507.06;;;8.77;60.48
79331;BME280;68797;49.782;19.054;2024-03-17T11:07:38;97516.81;;;8.73;56.13
79331;BME280;68797;49.782;19.054;2024-03-17T11:10:23;97517.56;;;8.80;61.23
79331;BME280;68797;49.782;19.054;2024-03-17T11:12:55;97509.78;;;8.72;59.38
79331;BME280;68797;49.782;19.054;2024-03-17T11:20:40;97511.31;;;8.39;59.15
79331;BME280;68797;49.782;19.054;2024-03-17T11:23:07;97521.28;;;8.23;57.80
79331;BME280;68797;49.782;19.054;2024-03-17T11:28:05;97511.34;;;7.86;56.48
79331;BME280;68797;49.782;19.054;2024-03-17T11:30:55;97509.91;;;8.18;62.89
79331;BME280;68797;49.782;19.054;2024-03-17T11:46:40;97490.06;;;7.45;58.99
79331;BME280;68797;49.782;19.054;2024-03-17T11:51:53;97498.53;;;7.65;59.60
79331;BME280;68797;49.782;19.054;2024-03-17T11:54:27;97486.00;;;7.78;59.26
79331;BME280;68797;49.782;19.054;2024-03-17T11:56:55;97482.09;;;7.97;55.75
79331;BME280;68797;49.782;19.054;2024-03-17T11:59:24;97469.56;;;8.10;59.36
79331;BME280;68797;49.782;19.054;2024-03-17T12:01:50;97476.81;;;7.97;57.52
79331;BME280;68797;49.782;19.054;2024-03-17T12:04:18;97467.50;;;7.78;58.63
79331;BME280;68797;49.782;19.054;2024-03-17T12:06:49;97471.34;;;7.58;57.11
79331;BME280;68797;49.782;19.054;2024-03-17T12:09:27;97469.66;;;7.53;56.95
79331;BME280;68797;49.782;19.054;2024-03-17T12:12:05;97476.38;;;7.72;59.78
79331;BME280;68797;49.782;19.054;2024-03-17T12:14:33;97469.28;;;7.77;56.95
79331;BME280;68797;49.782;19.054;2024-03-17T12:17:01;97454.13;;;7.87;55.92
79331;BME280;68797;49.782;19.054;2024-03-17T12:19:28;97458.13;;;7.60;56.38
79331;BME280;68797;49.782;19.054;2024-03-17T12:21:56;97462.59;;;7.56;56.93
79331;BME280;68797;49.782;19.054;2024-03-17T12:24:26;97458.88;;;7.67;57.94
79331;BME280;68797;49.782;19.054;2024-03-17T12:26:53;97456.22;;;7.68;59.04
79331;BME280;68797;49.782;19.054;2024-03-17T12:29:52;97453.22;;;7.88;57.03
79331;BME280;68797;49.782;19.054;2024-03-17T12:32:23;97445.09;;;7.97;59.25
79331;BME280;68797;49.782;19.054;2024-03-17T12:34:56;97449.19;;;8.15;57.55
79331;BME280;68797;49.782;19.054;2024-03-17T12:37:27;97446.72;;;8.06;57.58
79331;BME280;68797;49.782;19.054;2024-03-17T12:40:00;97434.53;;;7.97;56.04
79331;BME280;68797;49.782;19.054;2024-03-17T12:42:27;97436.50;;;7.86;57.82
79331;BME280;68797;49.782;19.054;2024-03-17T12:45:01;97425.69;;;8.01;56.78
79331;BME280;68797;49.782;19.054;2024-03-17T12:47:28;97427.16;;;7.68;56.13
79331;BME280;68797;49.782;19.054;2024-03-17T12:49:57;97410.41;;;7.69;56.26
79331;BME280;68797;49.782;19.054;2024-03-17T12:52:33;97436.84;;;7.69;56.03
79331;BME280;68797;49.782;19.054;2024-03-17T12:55:04;97426.38;;;7.63;55.57
79331;BME280;68797;49.782;19.054;2024-03-17T12:58:06;97418.06;;;7.35;55.86
79331;BME280;68797;49.782;19.054;2024-03-17T13:00:59;97422.19;;;7.50;56.82
79331;BME280;68797;49.782;19.054;2024-03-17T13:03:31;97410.25;;;7.78;56.86
79331;BME280;68797;49.782;19.054;2024-03-17T13:06:01;97404.59;;;7.97;56.51
79331;BME280;68797;49.782;19.054;2024-03-17T13:08:28;97416.09;;;7.96;57.59
79331;BME280;68797;49.782;19.054;2024-03-17T13:10:55;97412.56;;;7.95;56.86
79331;BME280;68797;49.782;19.054;2024-03-17T13:13:21;97418.72;;;7.96;57.61
79331;BME280;68797;49.782;19.054;2024-03-17T13:15:48;97403.00;;;7.90;57.11
79331;BME280;68797;49.782;19.054;2024-03-17T13:18:19;97408.94;;;8.01;59.17
79331;BME280;68797;49.782;19.054;2024-03-17T13:20:49;97395.59;;;8.07;59.14
79331;BME280;68797;49.782;19.054;2024-03-17T13:23:20;97399.16;;;8.06;56.19
79331;BME280;68797;49.782;19.054;2024-03-17T13:25:47;97400.63;;;8.21;58.77
79331;BME280;68797;49.782;19.054;2024-03-17T13:28:14;97404.31;;;8.57;60.64